Time,TemperatureF,DewpointF,PressureIn,WindDirection,WindDirectionDegrees,WindSpeedMPH,WindSpeedGustMPH,Humidity,HourlyPrecipIn,Conditions,Clouds,dailyrainin,SoftwareType,DateUTC
2013-06-07 00:00:00,65.8,61.8,29.92,SE,129,0.0,4.4,88,0.00,,,0.00,WX3IN1Plus v1.30,2013-06-07 04:00:00,
2013-06-07 00:01:00,65.9,61.8,29.92,SE,129,0.0,4.4,88,0.00,,,0.00,WX3IN1Plus v1.30,2013-06-07 04:01:00,
2013-06-07 00:02:00,66.1,62.0,29.92,SSE,149,0.0,4.4,88,0.00,,,0.00,WX3IN1Plus v1.30,2013-06-07 04:02:00,
2013-06-07 00:07:00,65.9,61.8,29.92,SSE,149,0.0,0.0,88,0.00,,,0.00,WX3IN1Plus v1.30,2013-06-07 04:07:00,
2013-06-07 00:12:00,66.0,62.0,29.91,West,261,0.0,2.4,89,0.00,,,0.00,WX3IN1Plus v1.30,2013-06-07 04:12:00,
2013-06-07 00:17:00,66.3,62.4,29.91,West,261,0.0,0.0,89,0.00,,,0.00,WX3IN1Plus v1.30,2013-06-07 04:17:00,
2013-06-07 00:22:00,66.3,62.4,29.91,West,261,0.0,0.0,89,0.00,,,0.00,WX3IN1Plus v1.30,2013-06-07 04:22:00,
2013-06-07 00:27:00,66.2,62.4,29.91,East,84,1.2,3.3,89,0.00,,,0.00,WX3IN1Plus v1.30,2013-06-07 04:27:00,
2013-06-07 00:32:00,66.1,62.4,29.91,West,270,0.0,3.1,89,0.00,,,0.00,WX3IN1Plus v1.30,2013-06-07 04:32:00,
2013-06-07 00:37:00,66.3,62.4,29.90,ENE,66,0.6,4.6,89,0.00,,,0.00,WX3IN1Plus v1.30,2013-06-07 04:37:00,
2013-06-07 00:42:00,66.2,62.4,29.90,NNE,19,2.7,7.5,89,0.00,,,0.00,WX3IN1Plus v1.30,2013-06-07 04:42:00,
2013-06-07 00:47:00,66.3,62.4,29.90,NE,36,0.0,4.1,89,0.00,,,0.00,WX3IN1Plus v1.30,2013-06-07 04:47:00,
2013-06-07 00:52:00,66.3,62.4,29.90,SSE,151,2.2,3.7,89,0.00,,,0.00,WX3IN1Plus v1.30,2013-06-07 04:52:00,
2013-06-07 00:57:00,66.3,62.4,29.90,ESE,123,0.0,3.1,89,0.00,,,0.00,WX3IN1Plus v1.30,2013-06-07 04:57:00,
2013-06-07 01:02:00,66.1,62.4,29.90,ESE,105,0.8,5.2,89,0.00,,,0.00,WX3IN1Plus v1.30,2013-06-07 05:02:00,
2013-06-07 01:07:00,66.3,62.4,29.89,SSE,156,0.6,3.2,89,0.00,,,0.00,WX3IN1Plus v1.30,2013-06-07 05:07:00,
2013-06-07 01:12:00,66.4,62.7,29.89,NE,45,0.0,1.8,89,0.00,,,0.00,WX3IN1Plus v1.30,2013-06-07 05:12:00,
2013-06-07 01:17:00,66.4,62.7,29.89,SSE,150,0.0,5.0,89,0.00,,,0.00,WX3IN1Plus v1.30,2013-06-07 05:17:00,
2013-06-07 01:22:00,66.2,62.4,29.89,SW,215,1.1,3.3,89,0.00,,,0.00,WX3IN1Plus v1.30,2013-06-07 05:22:00,
2013-06-07 01:27:00,66.2,62.4,29.89,SSE,161,0.0,3.5,89,0.00,,,0.00,WX3IN1Plus v1.30,2013-06-07 05:27:00,
2013-06-07 01:32:00,66.4,62.7,29.89,SE,130,0.0,3.1,89,0.00,,,0.00,WX3IN1Plus v1.30,2013-06-07 05:32:00,
2013-06-07 01:37:00,66.3,62.4,29.89,South,182,3.2,3.2,89,0.00,,,0.00,WX3IN1Plus v1.30,2013-06-07 05:37:00,
2013-06-07 01:42:00,66.3,62.4,29.88,SSE,147,0.9,6.0,89,0.00,,,0.00,WX3IN1Plus v1.30,2013-06-07 05:42:00,
2013-06-07 01:47:00,66.3,62.7,29.88,SSW,194,0.0,0.9,90,0.00,,,0.00,WX3IN1Plus v1.30,2013-06-07 05:47:00,
2013-06-07 01:52:00,66.3,62.7,29.88,ENE,78,0.0,1.8,90,0.00,,,0.00,WX3IN1Plus v1.30,2013-06-07 05:52:00,
2013-06-07 01:57:00,66.1,62.7,29.88,East,94,0.0,2.1,90,0.00,,,0.00,WX3IN1Plus v1.30,2013-06-07 05:57:00,
2013-06-07 02:02:00,66.2,62.7,29.87,SSE,161,0.0,3.4,90,0.00,,,0.00,WX3IN1Plus v1.30,2013-06-07 06:02:00,
2013-06-07 02:07:00,66.3,62.7,29.87,SSW,192,4.0,4.2,90,0.00,,,0.00,WX3IN1Plus v1.30,2013-06-07 06:07:00,
2013-06-07 02:12:00,66.2,62.7,29.87,SSW,213,1.3,8.2,90,0.00,,,0.00,WX3IN1Plus v1.30,2013-06-07 06:12:00,
2013-06-07 02:17:00,66.2,62.7,29.86,East,91,0.5,5.7,90,0.00,,,0.00,WX3IN1Plus v1.30,2013-06-07 06:17:00,
2013-06-07 02:22:00,66.3,62.7,29.86,East,81,0.0,3.4,90,0.00,,,0.00,WX3IN1Plus v1.30,2013-06-07 06:22:00,
2013-06-07 02:27:00,66.4,62.9,29.86,SSE,151,0.3,4.5,90,0.00,,,0.00,WX3IN1Plus v1.30,2013-06-07 06:27:00,
2013-06-07 02:32:00,66.3,62.7,29.86,SW,227,0.1,6.7,90,0.00,,,0.00,WX3IN1Plus v1.30,2013-06-07 06:32:00,
2013-06-07 02:37:00,66.3,62.7,29.86,ESE,116,0.3,3.4,90,0.00,,,0.00,WX3IN1Plus v1.30,2013-06-07 06:37:00,
2013-06-07 02:42:00,66.3,62.7,29.85,South,187,0.0,2.7,90,0.00,,,0.00,WX3IN1Plus v1.30,2013-06-07 06:42:00,
2013-06-07 02:47:00,66.5,62.9,29.85,SE,140,0.0,4.2,90,0.00,,,0.00,WX3IN1Plus v1.30,2013-06-07 06:47:00,
2013-06-07 02:53:00,66.3,62.7,29.85,ESE,106,0.0,4.6,90,0.00,,,0.00,WX3IN1Plus v1.30,2013-06-07 06:53:00,
2013-06-07 02:58:00,66.2,62.7,29.85,South,191,0.7,4.1,90,0.00,,,0.00,WX3IN1Plus v1.30,2013-06-07 06:58:00,
2013-06-07 03:03:00,66.4,62.9,29.84,ESE,106,0.0,3.9,90,0.00,,,0.00,WX3IN1Plus v1.30,2013-06-07 07:03:00,
2013-06-07 03:08:00,66.4,62.9,29.84,SE,135,0.0,1.8,90,0.00,,,0.00,WX3IN1Plus v1.30,2013-06-07 07:08:00,
2013-06-07 03:13:00,66.6,63.3,29.84,SSE,165,0.6,3.7,90,0.00,,,0.00,WX3IN1Plus v1.30,2013-06-07 07:13:00,
2013-06-07 03:18:00,66.6,63.3,29.84,SE,140,0.0,1.4,90,0.00,,,0.00,WX3IN1Plus v1.30,2013-06-07 07:18:00,
2013-06-07 03:23:00,66.2,62.7,29.83,South,170,0.0,2.7,90,0.00,,,0.00,WX3IN1Plus v1.30,2013-06-07 07:23:00,
2013-06-07 03:28:00,66.6,63.3,29.83,WSW,246,0.0,2.9,90,0.00,,,0.00,WX3IN1Plus v1.30,2013-06-07 07:28:00,
2013-06-07 03:33:00,66.6,63.3,29.83,SSE,156,0.0,2.9,90,0.00,,,0.00,WX3IN1Plus v1.30,2013-06-07 07:33:00,
2013-06-07 03:38:00,66.7,63.8,29.83,South,178,0.0,2.6,91,0.00,,,0.00,WX3IN1Plus v1.30,2013-06-07 07:38:00,
2013-06-07 03:43:00,66.4,63.5,29.83,West,278,3.6,9.6,91,0.00,,,0.00,WX3IN1Plus v1.30,2013-06-07 07:43:00,
2013-06-07 03:48:00,66.8,63.8,29.82,SSE,167,0.0,6.5,91,0.00,,,0.00,WX3IN1Plus v1.30,2013-06-07 07:48:00,
2013-06-07 03:53:00,66.8,63.8,29.82,South,182,0.0,4.2,91,0.00,,,0.00,WX3IN1Plus v1.30,2013-06-07 07:53:00,
2013-06-07 03:58:00,66.9,63.8,29.82,West,267,3.8,7.3,91,0.00,,,0.00,WX3IN1Plus v1.30,2013-06-07 07:58:00,
2013-06-07 04:03:00,67.0,64.2,29.82,South,189,0.6,9.3,91,0.00,,,0.00,WX3IN1Plus v1.30,2013-06-07 08:03:00,
2013-06-07 04:08:00,67.2,64.4,29.82,WSW,253,2.7,9.2,91,0.00,,,0.00,WX3IN1Plus v1.30,2013-06-07 08:08:00,
2013-06-07 04:13:00,66.8,63.8,29.82,WSW,244,4.1,6.1,91,0.00,,,0.00,WX3IN1Plus v1.30,2013-06-07 08:13:00,
2013-06-07 04:18:00,67.2,64.4,29.81,WSW,253,0.8,7.7,91,0.00,,,0.00,WX3IN1Plus v1.30,2013-06-07 08:18:00,
2013-06-07 04:23:00,67.3,64.4,29.81,SSE,151,0.0,3.8,91,0.00,,,0.00,WX3IN1Plus v1.30,2013-06-07 08:23:00,
2013-06-07 04:28:00,67.2,64.4,29.81,SSW,210,0.0,4.7,91,0.00,,,0.00,WX3IN1Plus v1.30,2013-06-07 08:28:00,
2013-06-07 04:33:00,67.4,64.4,29.81,SSE,165,0.0,2.0,91,0.00,,,0.00,WX3IN1Plus v1.30,2013-06-07 08:33:00,
2013-06-07 04:38:00,67.4,64.4,29.81,WSW,251,1.3,6.7,91,0.00,,,0.00,WX3IN1Plus v1.30,2013-06-07 08:38:00,
2013-06-07 04:43:00,67.4,64.4,29.81,SSW,195,0.0,6.0,91,0.00,,,0.00,WX3IN1Plus v1.30,2013-06-07 08:43:00,
2013-06-07 04:48:00,67.4,64.4,29.81,SSW,195,0.0,0.0,91,0.00,,,0.00,WX3IN1Plus v1.30,2013-06-07 08:48:00,
2013-06-07 04:53:00,67.4,64.4,29.81,SSW,195,0.0,0.0,91,0.00,,,0.00,WX3IN1Plus v1.30,2013-06-07 08:53:00,
2013-06-07 04:58:00,67.5,64.7,29.81,SSW,195,0.0,0.0,91,0.00,,,0.00,WX3IN1Plus v1.30,2013-06-07 08:58:00,
2013-06-07 05:03:00,67.6,64.7,29.81,SW,222,0.0,3.6,91,0.00,,,0.00,WX3IN1Plus v1.30,2013-06-07 09:03:00,
2013-06-07 05:08:00,67.8,64.7,29.81,SW,215,0.0,2.3,91,0.00,,,0.00,WX3IN1Plus v1.30,2013-06-07 09:08:00,
2013-06-07 05:13:00,67.9,64.9,29.81,SW,233,0.0,3.4,91,0.00,,,0.00,WX3IN1Plus v1.30,2013-06-07 09:13:00,
2013-06-07 05:18:00,68.2,65.3,29.81,SW,233,0.0,0.0,91,0.00,,,0.00,WX3IN1Plus v1.30,2013-06-07 09:18:00,
2013-06-07 05:23:00,67.9,64.9,29.81,WSW,240,1.9,3.8,91,0.00,,,0.00,WX3IN1Plus v1.30,2013-06-07 09:23:00,
2013-06-07 05:28:00,68.1,65.3,29.81,SW,230,1.9,3.5,91,0.00,,,0.00,WX3IN1Plus v1.30,2013-06-07 09:28:00,
2013-06-07 05:33:00,68.1,65.3,29.81,SW,232,0.0,3.4,91,0.00,,,0.00,WX3IN1Plus v1.30,2013-06-07 09:33:00,
2013-06-07 05:38:00,68.1,65.3,29.81,SSE,147,0.0,1.6,91,0.00,,,0.00,WX3IN1Plus v1.30,2013-06-07 09:38:00,
2013-06-07 05:43:00,68.3,65.3,29.81,SW,225,0.0,4.5,91,0.00,,,0.00,WX3IN1Plus v1.30,2013-06-07 09:43:00,
2013-06-07 05:48:00,68.5,65.4,29.81,West,275,0.0,3.8,91,0.00,,,0.00,WX3IN1Plus v1.30,2013-06-07 09:48:00,
2013-06-07 05:53:00,68.4,65.4,29.81,SSW,199,2.1,3.9,91,0.00,,,0.00,WX3IN1Plus v1.30,2013-06-07 09:53:00,
2013-06-07 05:58:00,68.4,65.4,29.81,WSW,247,0.0,5.5,91,0.00,,,0.00,WX3IN1Plus v1.30,2013-06-07 09:58:00,
2013-06-07 06:03:00,68.4,65.4,29.81,WSW,257,0.0,3.9,91,0.00,,,0.00,WX3IN1Plus v1.30,2013-06-07 10:03:00,
2013-06-07 06:08:00,68.5,65.4,29.81,South,188,0.0,4.5,91,0.00,,,0.00,WX3IN1Plus v1.30,2013-06-07 10:08:00,
2013-06-07 06:13:00,68.6,65.4,29.81,WSW,239,0.0,5.6,91,0.00,,,0.00,WX3IN1Plus v1.30,2013-06-07 10:13:00,
2013-06-07 06:18:00,68.5,65.4,29.81,SW,223,2.9,7.5,91,0.00,,,0.00,WX3IN1Plus v1.30,2013-06-07 10:18:00,
2013-06-07 06:23:00,68.5,65.4,29.82,SW,236,0.0,5.4,91,0.00,,,0.00,WX3IN1Plus v1.30,2013-06-07 10:23:00,
2013-06-07 06:28:00,68.5,65.4,29.82,SW,227,0.0,4.3,91,0.00,,,0.00,WX3IN1Plus v1.30,2013-06-07 10:28:00,
2013-06-07 06:33:00,68.6,65.4,29.82,WSW,241,0.9,5.5,91,0.00,,,0.00,WX3IN1Plus v1.30,2013-06-07 10:33:00,
2013-06-07 06:38:00,68.4,65.4,29.82,SSW,203,0.0,6.0,91,0.00,,,0.00,WX3IN1Plus v1.30,2013-06-07 10:38:00,
2013-06-07 06:43:00,68.8,65.3,29.82,West,272,0.0,6.0,90,0.00,,,0.00,WX3IN1Plus v1.30,2013-06-07 10:43:00,
2013-06-07 06:48:00,68.7,65.4,29.82,WNW,291,1.0,4.5,91,0.00,,,0.00,WX3IN1Plus v1.30,2013-06-07 10:48:00,
2013-06-07 06:53:00,68.6,65.4,29.82,SW,226,0.0,5.5,91,0.00,,,0.00,WX3IN1Plus v1.30,2013-06-07 10:53:00,
2013-06-07 06:58:00,68.6,65.4,29.82,NW,309,1.5,3.7,91,0.00,,,0.00,WX3IN1Plus v1.30,2013-06-07 10:58:00,
2013-06-07 07:03:00,68.7,64.9,29.82,SW,216,0.0,5.3,90,0.00,,,0.00,WX3IN1Plus v1.30,2013-06-07 11:03:00,
2013-06-07 07:08:00,68.8,65.3,29.82,South,185,0.0,2.4,90,0.00,,,0.00,WX3IN1Plus v1.30,2013-06-07 11:08:00,
2013-06-07 07:13:00,68.5,64.9,29.82,SE,144,0.0,5.8,90,0.00,,,0.00,WX3IN1Plus v1.30,2013-06-07 11:13:00,
2013-06-07 07:18:00,68.8,65.3,29.82,SW,217,6.0,6.0,90,0.00,,,0.00,WX3IN1Plus v1.30,2013-06-07 11:18:00,
2013-06-07 07:23:00,69.0,65.4,29.82,West,260,0.0,6.2,90,0.00,,,0.00,WX3IN1Plus v1.30,2013-06-07 11:23:00,
2013-06-07 07:28:00,68.9,65.4,29.82,West,260,0.0,0.0,90,0.00,,,0.00,WX3IN1Plus v1.30,2013-06-07 11:28:00,
2013-06-07 07:34:00,68.6,64.9,29.82,West,260,0.0,0.0,90,0.00,,,0.00,WX3IN1Plus v1.30,2013-06-07 11:34:00,
2013-06-07 07:39:00,68.8,65.3,29.82,West,260,0.0,0.0,90,0.00,,,0.00,WX3IN1Plus v1.30,2013-06-07 11:39:00,
2013-06-07 07:44:00,68.9,65.4,29.82,West,260,0.0,0.0,90,0.00,,,0.00,WX3IN1Plus v1.30,2013-06-07 11:44:00,
2013-06-07 07:49:00,69.0,65.4,29.83,West,260,0.0,0.0,90,0.00,,,0.00,WX3IN1Plus v1.30,2013-06-07 11:49:00,
2013-06-07 07:54:00,68.8,65.3,29.83,West,260,0.0,0.0,90,0.00,,,0.00,WX3IN1Plus v1.30,2013-06-07 11:54:00,
2013-06-07 07:59:00,68.7,64.9,29.83,West,260,0.0,0.0,90,0.00,,,0.00,WX3IN1Plus v1.30,2013-06-07 11:59:00,
2013-06-07 08:04:00,68.9,65.4,29.83,West,260,0.0,0.0,90,0.00,,,0.00,WX3IN1Plus v1.30,2013-06-07 12:04:00,
2013-06-07 08:09:00,68.8,65.3,29.83,SSW,210,0.0,2.3,90,0.00,,,0.00,WX3IN1Plus v1.30,2013-06-07 12:09:00,
2013-06-07 08:14:00,69.0,65.4,29.82,WSW,237,0.0,4.4,90,0.00,,,0.00,WX3IN1Plus v1.30,2013-06-07 12:14:00,
2013-06-07 08:19:00,69.1,65.4,29.82,NNW,331,0.0,1.3,90,0.00,,,0.00,WX3IN1Plus v1.30,2013-06-07 12:19:00,
2013-06-07 08:24:00,68.8,65.3,29.83,NNW,331,0.0,0.0,90,0.00,,,0.00,WX3IN1Plus v1.30,2013-06-07 12:24:00,
2013-06-07 08:29:00,68.7,64.9,29.83,NNW,331,0.0,0.0,90,0.00,,,0.00,WX3IN1Plus v1.30,2013-06-07 12:29:00,
2013-06-07 08:34:00,68.7,64.9,29.83,West,277,0.0,2.1,90,0.00,,,0.00,WX3IN1Plus v1.30,2013-06-07 12:34:00,
2013-06-07 08:39:00,69.0,65.4,29.83,West,277,0.0,0.0,90,0.00,,,0.00,WX3IN1Plus v1.30,2013-06-07 12:39:00,
2013-06-07 08:44:00,69.0,65.4,29.83,West,277,0.0,0.0,90,0.00,,,0.00,WX3IN1Plus v1.30,2013-06-07 12:44:00,
2013-06-07 08:49:00,69.0,65.4,29.82,West,277,0.0,0.0,90,0.00,,,0.00,WX3IN1Plus v1.30,2013-06-07 12:49:00,
2013-06-07 08:54:00,69.0,65.4,29.82,West,277,0.0,0.0,90,0.00,,,0.00,WX3IN1Plus v1.30,2013-06-07 12:54:00,
2013-06-07 08:59:00,69.1,65.4,29.82,West,277,0.0,0.0,90,0.00,,,0.00,WX3IN1Plus v1.30,2013-06-07 12:59:00,
2013-06-07 09:04:00,69.1,66.2,29.82,WSW,241,1.1,2.9,91,0.00,,,0.00,WX3IN1Plus v1.30,2013-06-07 13:04:00,
2013-06-07 09:09:00,69.2,65.4,29.82,WSW,244,0.0,4.2,90,0.00,,,0.00,WX3IN1Plus v1.30,2013-06-07 13:09:00,
2013-06-07 09:14:00,68.9,65.4,29.82,WSW,244,0.0,0.0,90,0.00,,,0.00,WX3IN1Plus v1.30,2013-06-07 13:14:00,
2013-06-07 09:19:00,69.1,66.2,29.82,WSW,244,0.0,0.0,91,0.00,,,0.00,WX3IN1Plus v1.30,2013-06-07 13:19:00,
2013-06-07 09:24:00,69.3,65.8,29.82,WSW,244,0.0,0.0,90,0.00,,,0.00,WX3IN1Plus v1.30,2013-06-07 13:24:00,
2013-06-07 09:29:00,69.4,65.8,29.82,WSW,244,0.0,0.0,90,0.00,,,0.00,WX3IN1Plus v1.30,2013-06-07 13:29:00,
2013-06-07 09:34:00,69.2,65.4,29.81,WSW,244,0.0,0.0,90,0.00,,,0.00,WX3IN1Plus v1.30,2013-06-07 13:34:00,
2013-06-07 09:39:00,69.3,65.8,29.81,WSW,244,0.0,0.0,90,0.00,,,0.00,WX3IN1Plus v1.30,2013-06-07 13:39:00,
2013-06-07 09:44:00,69.5,66.2,29.81,WSW,244,0.0,0.0,90,0.00,,,0.00,WX3IN1Plus v1.30,2013-06-07 13:44:00,
2013-06-07 09:49:00,69.5,66.2,29.81,WSW,244,0.0,0.0,90,0.00,,,0.00,WX3IN1Plus v1.30,2013-06-07 13:49:00,
2013-06-07 09:54:00,69.5,66.2,29.81,WSW,244,0.0,0.0,90,0.00,,,0.00,WX3IN1Plus v1.30,2013-06-07 13:54:00,
2013-06-07 09:59:00,69.5,66.2,29.81,WSW,244,0.0,0.0,90,0.00,,,0.00,WX3IN1Plus v1.30,2013-06-07 13:59:00,
2013-06-07 10:04:00,69.4,65.8,29.81,WSW,244,0.0,0.0,90,0.00,,,0.00,WX3IN1Plus v1.30,2013-06-07 14:04:00,
2013-06-07 10:09:00,69.4,65.8,29.81,WSW,244,0.0,0.0,90,0.00,,,0.00,WX3IN1Plus v1.30,2013-06-07 14:09:00,
2013-06-07 10:14:00,69.5,66.2,29.81,WSW,244,0.0,0.0,90,0.00,,,0.00,WX3IN1Plus v1.30,2013-06-07 14:14:00,
2013-06-07 10:19:00,69.6,66.2,29.81,WSW,244,0.0,0.0,90,0.00,,,0.00,WX3IN1Plus v1.30,2013-06-07 14:19:00,
2013-06-07 10:24:00,69.7,66.2,29.81,WSW,244,0.0,0.0,90,0.00,,,0.00,WX3IN1Plus v1.30,2013-06-07 14:24:00,
2013-06-07 10:29:00,69.5,66.2,29.80,WSW,244,0.0,0.0,90,0.00,,,0.00,WX3IN1Plus v1.30,2013-06-07 14:29:00,
2013-06-07 10:34:00,69.5,66.2,29.80,WSW,244,0.0,0.0,90,0.00,,,0.00,WX3IN1Plus v1.30,2013-06-07 14:34:00,
2013-06-07 10:39:00,69.8,66.3,29.80,WSW,244,0.0,0.0,90,0.00,,,0.00,WX3IN1Plus v1.30,2013-06-07 14:39:00,
2013-06-07 10:44:00,70.0,66.2,29.80,WSW,244,0.0,0.0,89,0.00,,,0.00,WX3IN1Plus v1.30,2013-06-07 14:44:00,
2013-06-07 10:49:00,70.0,66.3,29.80,WSW,244,0.0,0.0,90,0.00,,,0.00,WX3IN1Plus v1.30,2013-06-07 14:49:00,
2013-06-07 10:54:00,69.8,66.3,29.80,WSW,244,0.0,0.0,90,0.00,,,0.00,WX3IN1Plus v1.30,2013-06-07 14:54:00,
2013-06-07 10:59:00,70.1,66.3,29.80,WSW,244,0.0,0.0,90,0.00,,,0.00,WX3IN1Plus v1.30,2013-06-07 14:59:00,
2013-06-07 11:04:00,70.0,66.3,29.79,WSW,244,0.0,0.0,90,0.00,,,0.00,WX3IN1Plus v1.30,2013-06-07 15:04:00,
2013-06-07 11:09:00,70.1,66.2,29.79,WSW,244,0.0,0.0,89,0.00,,,0.00,WX3IN1Plus v1.30,2013-06-07 15:09:00,
2013-06-07 11:14:00,70.1,66.2,29.79,NE,39,0.0,2.2,89,0.00,,,0.00,WX3IN1Plus v1.30,2013-06-07 15:14:00,
2013-06-07 11:19:00,70.3,66.3,29.79,NNE,25,0.0,2.4,89,0.00,,,0.00,WX3IN1Plus v1.30,2013-06-07 15:19:00,
2013-06-07 11:24:00,70.5,66.7,29.79,ENE,68,0.0,2.4,89,0.00,,,0.00,WX3IN1Plus v1.30,2013-06-07 15:24:00,
2013-06-07 11:29:00,70.4,66.7,29.79,ENE,68,0.0,0.0,89,0.00,,,0.00,WX3IN1Plus v1.30,2013-06-07 15:29:00,
2013-06-07 11:34:00,70.5,66.9,29.79,ENE,68,0.0,0.0,90,0.00,,,0.00,WX3IN1Plus v1.30,2013-06-07 15:34:00,
2013-06-07 11:39:00,70.7,67.2,29.79,East,91,0.0,1.1,90,0.00,,,0.00,WX3IN1Plus v1.30,2013-06-07 15:39:00,
2013-06-07 11:44:00,70.7,67.2,29.79,East,91,0.0,0.0,90,0.00,,,0.00,WX3IN1Plus v1.30,2013-06-07 15:44:00,
2013-06-07 11:49:00,70.8,67.2,29.79,East,91,0.0,0.0,90,0.00,,,0.00,WX3IN1Plus v1.30,2013-06-07 15:49:00,
2013-06-07 11:54:00,70.8,67.2,29.78,ENE,59,0.0,0.9,90,0.00,,,0.00,WX3IN1Plus v1.30,2013-06-07 15:54:00,
2013-06-07 11:59:00,70.5,66.7,29.78,ENE,59,0.0,0.0,89,0.00,,,0.00,WX3IN1Plus v1.30,2013-06-07 15:59:00,
2013-06-07 12:04:00,70.5,66.7,29.78,NE,46,0.0,3.0,89,0.00,,,0.00,WX3IN1Plus v1.30,2013-06-07 16:04:00,
2013-06-07 12:09:00,70.7,66.9,29.78,NE,43,0.0,4.2,89,0.00,,,0.00,WX3IN1Plus v1.30,2013-06-07 16:09:00,
2013-06-07 12:14:00,70.5,66.7,29.77,ENE,70,2.4,4.2,89,0.00,,,0.00,WX3IN1Plus v1.30,2013-06-07 16:14:00,
2013-06-07 12:19:00,70.4,66.7,29.77,NNE,26,4.9,5.4,89,0.00,,,0.00,WX3IN1Plus v1.30,2013-06-07 16:19:00,
2013-06-07 12:24:00,70.1,66.2,29.77,East,90,2.9,7.1,89,0.00,,,0.00,WX3IN1Plus v1.30,2013-06-07 16:24:00,
2013-06-07 12:29:00,70.3,66.3,29.76,NE,40,0.0,3.7,89,0.00,,,0.00,WX3IN1Plus v1.30,2013-06-07 16:29:00,
2013-06-07 12:34:00,70.2,66.3,29.76,NNE,30,0.0,5.1,89,0.00,,,0.00,WX3IN1Plus v1.30,2013-06-07 16:34:00,
2013-06-07 12:39:00,70.3,66.7,29.76,NNE,30,1.0,3.2,90,0.00,,,0.00,WX3IN1Plus v1.30,2013-06-07 16:39:00,
2013-06-07 12:44:00,69.9,66.3,29.76,NE,36,0.8,4.4,90,0.00,,,0.00,WX3IN1Plus v1.30,2013-06-07 16:44:00,
2013-06-07 12:49:00,69.8,66.3,29.76,SE,125,0.0,1.8,90,0.00,,,0.00,WX3IN1Plus v1.30,2013-06-07 16:49:00,
2013-06-07 12:54:00,70.0,66.3,29.76,ENE,74,0.0,1.2,90,0.00,,,0.00,WX3IN1Plus v1.30,2013-06-07 16:54:00,
2013-06-07 12:59:00,69.8,66.3,29.75,NE,46,0.0,0.3,90,0.00,,,0.00,WX3IN1Plus v1.30,2013-06-07 16:59:00,
2013-06-07 13:04:00,69.5,66.2,29.75,East,82,0.0,6.8,90,0.00,,,0.00,WX3IN1Plus v1.30,2013-06-07 17:04:00,
2013-06-07 13:09:00,69.9,66.3,29.75,ENE,57,0.0,1.0,90,0.00,,,0.00,WX3IN1Plus v1.30,2013-06-07 17:09:00,
2013-06-07 13:15:00,69.7,66.2,29.74,East,84,1.1,5.9,90,0.00,,,0.00,WX3IN1Plus v1.30,2013-06-07 17:15:00,
2013-06-07 13:20:00,69.3,65.8,29.73,ENE,57,0.9,8.8,90,0.00,,,0.00,WX3IN1Plus v1.30,2013-06-07 17:20:00,
2013-06-07 13:25:00,69.1,65.4,29.73,NNE,26,2.9,5.1,90,0.00,,,0.00,WX3IN1Plus v1.30,2013-06-07 17:25:00,
2013-06-07 13:30:00,69.4,65.4,29.73,NE,39,1.7,4.2,89,0.00,,,0.00,WX3IN1Plus v1.30,2013-06-07 17:30:00,
2013-06-07 13:35:00,69.4,65.8,29.73,NE,54,2.4,7.2,90,0.00,,,0.00,WX3IN1Plus v1.30,2013-06-07 17:35:00,
2013-06-07 13:40:00,69.4,65.8,29.73,ESE,113,2.4,4.2,90,0.00,,,0.00,WX3IN1Plus v1.30,2013-06-07 17:40:00,
2013-06-07 13:45:00,69.5,66.2,29.73,East,94,0.0,5.6,90,0.00,,,0.00,WX3IN1Plus v1.30,2013-06-07 17:45:00,
2013-06-07 13:50:00,69.4,65.8,29.72,ENE,59,3.1,6.0,90,0.00,,,0.00,WX3IN1Plus v1.30,2013-06-07 17:50:00,
2013-06-07 13:55:00,69.2,65.3,29.71,NNE,18,0.0,6.7,89,0.00,,,0.00,WX3IN1Plus v1.30,2013-06-07 17:55:00,
2013-06-07 14:00:00,69.5,66.2,29.71,ESE,104,2.0,6.3,90,0.00,,,0.00,WX3IN1Plus v1.30,2013-06-07 18:00:00,
2013-06-07 14:05:00,69.7,66.2,29.71,ESE,112,3.6,7.7,90,0.00,,,0.00,WX3IN1Plus v1.30,2013-06-07 18:05:00,
2013-06-07 14:11:00,69.5,65.8,29.71,NE,56,0.0,4.9,89,0.00,,,0.00,WX3IN1Plus v1.30,2013-06-07 18:11:00,
2013-06-07 14:16:00,69.4,65.8,29.71,North,354,3.1,4.7,90,0.00,,,0.00,WX3IN1Plus v1.30,2013-06-07 18:16:00,
2013-06-07 14:22:00,69.4,65.4,29.71,ENE,59,5.5,5.5,89,0.00,,,0.00,WX3IN1Plus v1.30,2013-06-07 18:22:00,
2013-06-07 14:28:00,69.4,65.4,29.70,NE,37,0.0,7.3,89,0.00,,,0.00,WX3IN1Plus v1.30,2013-06-07 18:28:00,
2013-06-07 14:33:00,69.1,65.3,29.70,ENE,70,0.0,8.5,89,0.00,,,0.00,WX3IN1Plus v1.30,2013-06-07 18:33:00,
2013-06-07 14:38:00,69.2,65.4,29.70,SE,126,0.0,4.4,90,0.00,,,0.00,WX3IN1Plus v1.30,2013-06-07 18:38:00,
2013-06-07 14:43:00,69.0,65.4,29.70,NNE,33,7.3,7.5,90,0.00,,,0.00,WX3IN1Plus v1.30,2013-06-07 18:43:00,
2013-06-07 14:48:00,68.8,65.3,29.69,East,85,4.4,8.3,90,0.00,,,0.00,WX3IN1Plus v1.30,2013-06-07 18:48:00,
2013-06-07 14:54:00,68.8,65.3,29.69,East,99,2.2,8.6,90,0.00,,,0.00,WX3IN1Plus v1.30,2013-06-07 18:54:00,
2013-06-07 15:00:00,68.5,64.9,29.68,NE,39,3.8,6.6,90,0.00,,,0.00,WX3IN1Plus v1.30,2013-06-07 19:00:00,
2013-06-07 15:05:00,68.9,65.4,29.68,ESE,109,2.2,4.4,90,0.00,,,0.00,WX3IN1Plus v1.30,2013-06-07 19:05:00,
2013-06-07 15:10:00,69.1,65.4,29.68,ENE,75,1.9,7.3,90,0.00,,,0.00,WX3IN1Plus v1.30,2013-06-07 19:10:00,
2013-06-07 15:15:00,68.7,64.7,29.68,ENE,64,2.1,8.3,89,0.00,,,0.00,WX3IN1Plus v1.30,2013-06-07 19:15:00,
2013-06-07 15:20:00,69.0,65.3,29.67,NE,54,6.8,8.8,89,0.00,,,0.00,WX3IN1Plus v1.30,2013-06-07 19:20:00,
2013-06-07 15:26:00,68.8,65.3,29.67,NE,56,6.2,8.0,90,0.00,,,0.00,WX3IN1Plus v1.30,2013-06-07 19:26:00,
2013-06-07 15:31:00,69.2,65.4,29.66,ENE,73,2.1,4.9,90,0.00,,,0.00,WX3IN1Plus v1.30,2013-06-07 19:31:00,
2013-06-07 15:37:00,69.0,65.4,29.67,ENE,74,4.1,9.1,90,0.00,,,0.00,WX3IN1Plus v1.30,2013-06-07 19:37:00,
2013-06-07 15:44:00,69.2,65.4,29.67,ENE,57,2.1,7.2,90,0.00,,,0.00,WX3IN1Plus v1.30,2013-06-07 19:44:00,
2013-06-07 15:50:00,69.3,65.4,29.67,ESE,123,2.2,8.2,89,0.00,,,0.00,WX3IN1Plus v1.30,2013-06-07 19:50:00,
2013-06-07 15:55:00,69.0,65.3,29.68,East,81,1.9,5.4,89,0.00,,,0.00,WX3IN1Plus v1.30,2013-06-07 19:55:00,
2013-06-07 16:01:00,68.9,65.4,29.67,ENE,75,2.8,5.9,90,0.00,,,0.00,WX3IN1Plus v1.30,2013-06-07 20:01:00,
2013-06-07 16:06:00,69.1,65.4,29.66,NE,49,0.5,9.0,90,0.00,,,0.00,WX3IN1Plus v1.30,2013-06-07 20:06:00,
2013-06-07 16:11:00,69.0,65.3,29.66,NE,53,1.9,9.2,89,0.00,,,0.00,WX3IN1Plus v1.30,2013-06-07 20:11:00,
2013-06-07 16:17:00,68.9,65.3,29.61,NE,54,3.7,9.3,89,0.00,,,0.00,WX3IN1Plus v1.30,2013-06-07 20:17:00,
2013-06-07 16:23:00,68.9,65.3,29.64,ENE,59,4.0,10.4,89,0.00,,,0.00,WX3IN1Plus v1.30,2013-06-07 20:23:00,
2013-06-07 16:28:00,68.9,65.4,29.63,NE,39,3.0,11.3,90,0.00,,,0.00,WX3IN1Plus v1.30,2013-06-07 20:28:00,
2013-06-07 16:33:00,69.0,65.4,29.63,NE,40,3.1,9.9,90,0.00,,,0.00,WX3IN1Plus v1.30,2013-06-07 20:33:00,
2013-06-07 16:38:00,68.7,64.7,29.63,NW,326,1.8,10.7,89,0.00,,,0.00,WX3IN1Plus v1.30,2013-06-07 20:38:00,
2013-06-07 16:43:00,69.0,65.4,29.62,North,5,0.4,7.0,90,0.00,,,0.00,WX3IN1Plus v1.30,2013-06-07 20:43:00,
2013-06-07 16:48:00,68.8,65.3,29.53,NNE,28,4.4,6.8,90,0.00,,,0.00,WX3IN1Plus v1.30,2013-06-07 20:48:00,
2013-06-07 16:54:00,68.8,65.3,29.63,East,97,4.1,7.1,90,0.00,,,0.00,WX3IN1Plus v1.30,2013-06-07 20:54:00,
2013-06-07 16:59:00,68.7,64.7,29.64,East,87,1.2,7.2,89,0.00,,,0.00,WX3IN1Plus v1.30,2013-06-07 20:59:00,
2013-06-07 17:04:00,68.8,64.9,29.65,East,91,2.2,6.5,89,0.00,,,0.00,WX3IN1Plus v1.30,2013-06-07 21:04:00,
2013-06-07 17:10:00,69.0,65.3,29.64,NNE,28,2.3,4.8,89,0.00,,,0.00,WX3IN1Plus v1.30,2013-06-07 21:10:00,
2013-06-07 17:15:00,68.8,65.3,29.64,NE,43,3.0,8.6,90,0.00,,,0.00,WX3IN1Plus v1.30,2013-06-07 21:15:00,
2013-06-07 17:20:00,69.0,65.4,29.62,NE,39,4.7,8.1,90,0.00,,,0.00,WX3IN1Plus v1.30,2013-06-07 21:20:00,
2013-06-07 17:26:00,68.7,64.7,29.62,NE,47,4.1,8.8,89,0.00,,,0.00,WX3IN1Plus v1.30,2013-06-07 21:26:00,
2013-06-07 17:32:00,68.7,64.7,29.43,North,2,5.0,7.3,89,0.00,,,0.00,WX3IN1Plus v1.30,2013-06-07 21:32:00,
2013-06-07 17:37:00,68.4,64.7,29.46,East,84,7.1,8.8,89,0.00,,,0.00,WX3IN1Plus v1.30,2013-06-07 21:37:00,
2013-06-07 17:43:00,68.5,64.9,29.59,East,81,6.3,14.8,90,0.00,,,0.00,WX3IN1Plus v1.30,2013-06-07 21:43:00,
2013-06-07 17:48:00,68.4,64.9,29.59,ENE,60,3.6,10.6,90,0.00,,,0.00,WX3IN1Plus v1.30,2013-06-07 21:48:00,
2013-06-07 17:53:00,68.5,64.9,29.41,NE,52,5.5,8.6,90,0.00,,,0.00,WX3IN1Plus v1.30,2013-06-07 21:53:00,
2013-06-07 17:58:00,68.6,64.9,29.56,NE,46,5.6,9.6,90,0.00,,,0.00,WX3IN1Plus v1.30,2013-06-07 21:58:00,
2013-06-07 18:03:00,68.6,64.9,29.56,NNE,30,2.8,9.8,90,0.00,,,0.00,WX3IN1Plus v1.30,2013-06-07 22:03:00,
2013-06-07 18:09:00,68.6,64.9,29.59,ENE,67,5.2,9.8,90,0.00,,,0.00,WX3IN1Plus v1.30,2013-06-07 22:09:00,
2013-06-07 18:15:00,68.6,64.9,29.59,ENE,61,2.9,8.1,90,0.00,,,0.00,WX3IN1Plus v1.30,2013-06-07 22:15:00,
2013-06-07 18:21:00,68.4,64.9,29.59,NE,52,4.8,10.5,90,0.00,,,0.00,WX3IN1Plus v1.30,2013-06-07 22:21:00,
2013-06-07 18:26:00,68.6,64.9,29.59,ENE,67,2.6,9.0,90,0.00,,,0.00,WX3IN1Plus v1.30,2013-06-07 22:26:00,
2013-06-07 18:33:00,68.7,64.9,29.59,ENE,57,3.4,8.4,90,0.00,,,0.00,WX3IN1Plus v1.30,2013-06-07 22:33:00,
2013-06-07 18:38:00,68.9,65.4,29.59,NE,46,3.0,10.2,90,0.00,,,0.00,WX3IN1Plus v1.30,2013-06-07 22:38:00,
2013-06-07 18:43:00,68.6,64.9,29.60,NE,53,3.9,8.6,90,0.00,,,0.00,WX3IN1Plus v1.30,2013-06-07 22:43:00,
2013-06-07 18:48:00,68.7,64.9,29.59,NNE,33,4.1,7.0,90,0.00,,,0.00,WX3IN1Plus v1.30,2013-06-07 22:48:00,
2013-06-07 18:54:00,68.9,65.4,29.60,NE,37,1.3,9.5,90,0.00,,,0.00,WX3IN1Plus v1.30,2013-06-07 22:54:00,
2013-06-07 18:59:00,68.3,64.7,29.59,NE,40,4.4,10.7,90,0.00,,,0.00,WX3IN1Plus v1.30,2013-06-07 22:59:00,
2013-06-07 19:04:00,69.0,65.4,29.59,NE,39,5.5,9.5,90,0.00,,,0.00,WX3IN1Plus v1.30,2013-06-07 23:04:00,
2013-06-07 19:09:00,68.9,65.4,29.59,East,88,3.1,9.2,90,0.00,,,0.00,WX3IN1Plus v1.30,2013-06-07 23:09:00,
2013-06-07 19:14:00,68.9,65.4,29.59,NE,35,1.6,10.6,90,0.00,,,0.00,WX3IN1Plus v1.30,2013-06-07 23:14:00,
2013-06-07 19:20:00,69.1,65.3,29.59,East,81,6.7,10.3,89,0.00,,,0.00,WX3IN1Plus v1.30,2013-06-07 23:20:00,
2013-06-07 19:26:00,68.5,64.7,29.59,NE,53,7.9,13.7,89,0.00,,,0.00,WX3IN1Plus v1.30,2013-06-07 23:26:00,
2013-06-07 19:32:00,68.8,64.9,29.59,ENE,67,8.0,9.1,89,0.00,,,0.00,WX3IN1Plus v1.30,2013-06-07 23:32:00,
2013-06-07 19:37:00,68.8,64.9,29.60,ESE,102,1.4,9.8,89,0.00,,,0.00,WX3IN1Plus v1.30,2013-06-07 23:37:00,
2013-06-07 19:43:00,68.6,64.4,29.60,NE,54,5.0,10.3,88,0.00,,,0.00,WX3IN1Plus v1.30,2013-06-07 23:43:00,
2013-06-07 19:48:00,68.5,64.4,29.60,ENE,67,3.2,11.4,88,0.00,,,0.00,WX3IN1Plus v1.30,2013-06-07 23:48:00,
2013-06-07 19:53:00,68.4,64.4,29.60,NE,50,3.0,8.5,88,0.00,,,0.00,WX3IN1Plus v1.30,2013-06-07 23:53:00,
2013-06-07 19:58:00,68.6,64.4,29.61,ENE,73,3.8,7.7,88,0.00,,,0.00,WX3IN1Plus v1.30,2013-06-07 23:58:00,
2013-06-07 20:04:00,68.5,64.4,29.60,NNE,22,3.1,10.1,88,0.00,,,0.00,WX3IN1Plus v1.30,2013-06-08 00:04:00,
2013-06-07 20:10:00,68.4,64.4,29.55,NE,52,8.3,13.0,88,0.00,,,0.00,WX3IN1Plus v1.30,2013-06-08 00:10:00,
2013-06-07 20:15:00,68.5,64.4,29.60,NE,47,2.3,8.8,88,0.00,,,0.00,WX3IN1Plus v1.30,2013-06-08 00:15:00,
2013-06-07 20:20:00,68.5,64.4,29.60,NE,54,2.0,9.0,88,0.00,,,0.00,WX3IN1Plus v1.30,2013-06-08 00:20:00,
2013-06-07 20:25:00,68.4,64.4,29.60,SE,130,1.5,8.2,88,0.00,,,0.00,WX3IN1Plus v1.30,2013-06-08 00:25:00,
2013-06-07 20:31:00,68.3,64.4,29.60,East,88,4.1,10.0,89,0.00,,,0.00,WX3IN1Plus v1.30,2013-06-08 00:31:00,
2013-06-07 20:36:00,68.3,64.4,29.61,ENE,70,1.8,9.8,89,0.00,,,0.00,WX3IN1Plus v1.30,2013-06-08 00:36:00,
2013-06-07 20:42:00,68.2,64.4,29.61,NE,53,1.8,7.8,89,0.00,,,0.00,WX3IN1Plus v1.30,2013-06-08 00:42:00,
2013-06-07 20:47:00,68.2,64.4,29.61,ENE,61,2.4,9.5,89,0.00,,,0.00,WX3IN1Plus v1.30,2013-06-08 00:47:00,
2013-06-07 20:52:00,68.0,64.4,29.61,NNE,18,3.2,12.0,89,0.00,,,0.00,WX3IN1Plus v1.30,2013-06-08 00:52:00,
2013-06-07 20:57:00,68.1,64.4,29.61,ENE,77,3.2,7.5,89,0.00,,,0.00,WX3IN1Plus v1.30,2013-06-08 00:57:00,
2013-06-07 21:02:00,68.0,64.4,29.61,NE,54,4.6,8.9,89,0.00,,,0.00,WX3IN1Plus v1.30,2013-06-08 01:02:00,
2013-06-07 21:07:00,68.1,64.4,29.61,NW,319,6.1,9.5,89,0.00,,,0.00,WX3IN1Plus v1.30,2013-06-08 01:07:00,
2013-06-07 21:13:00,67.7,63.8,29.62,ENE,67,6.1,9.6,89,0.00,,,0.00,WX3IN1Plus v1.30,2013-06-08 01:13:00,
2013-06-07 21:18:00,67.4,63.5,29.62,North,1,1.5,7.7,89,0.00,,,0.00,WX3IN1Plus v1.30,2013-06-08 01:18:00,
2013-06-07 21:23:00,67.3,63.5,29.62,NNE,25,4.9,8.8,89,0.00,,,0.00,WX3IN1Plus v1.30,2013-06-08 01:23:00,
2013-06-07 21:28:00,67.1,63.8,29.62,ENE,63,1.6,8.0,90,0.00,,,0.00,WX3IN1Plus v1.30,2013-06-08 01:28:00,
2013-06-07 21:34:00,67.1,63.8,29.63,ENE,73,6.2,8.9,90,0.00,,,0.00,WX3IN1Plus v1.30,2013-06-08 01:34:00,
2013-06-07 21:39:00,66.8,63.3,29.62,ENE,67,5.6,16.0,90,0.00,,,0.00,WX3IN1Plus v1.30,2013-06-08 01:39:00,
2013-06-07 21:44:00,67.0,63.5,29.63,ENE,71,3.1,9.8,90,0.00,,,0.00,WX3IN1Plus v1.30,2013-06-08 01:44:00,
2013-06-07 21:49:00,66.7,63.3,29.63,NE,35,0.8,7.4,90,0.00,,,0.00,WX3IN1Plus v1.30,2013-06-08 01:49:00,
2013-06-07 21:55:00,66.7,63.3,29.63,NE,37,3.8,10.0,90,0.00,,,0.00,WX3IN1Plus v1.30,2013-06-08 01:55:00,
2013-06-07 22:01:00,66.7,63.3,29.63,East,80,5.3,8.5,90,0.00,,,0.00,WX3IN1Plus v1.30,2013-06-08 02:01:00,
2013-06-07 22:06:00,66.4,62.9,29.63,NE,54,5.6,8.7,90,0.00,,,0.00,WX3IN1Plus v1.30,2013-06-08 02:06:00,
2013-06-07 22:12:00,66.0,62.4,29.63,NE,43,4.9,18.2,90,0.00,,,0.00,WX3IN1Plus v1.30,2013-06-08 02:12:00,
2013-06-07 22:17:00,66.0,62.4,29.63,SE,135,4.1,8.6,90,0.00,,,0.00,WX3IN1Plus v1.30,2013-06-08 02:17:00,
2013-06-07 22:22:00,65.9,62.4,29.64,NNE,29,5.0,9.2,90,0.00,,,0.00,WX3IN1Plus v1.30,2013-06-08 02:22:00,
2013-06-07 22:28:00,65.8,62.4,29.64,North,7,2.7,9.4,90,0.00,,,0.00,WX3IN1Plus v1.30,2013-06-08 02:28:00,
2013-06-07 22:33:00,65.7,62.4,29.65,ENE,57,4.1,8.8,90,0.00,,,0.00,WX3IN1Plus v1.30,2013-06-08 02:33:00,
2013-06-07 22:38:00,65.8,62.4,29.65,NNW,337,0.7,6.8,90,0.00,,,0.00,WX3IN1Plus v1.30,2013-06-08 02:38:00,
2013-06-07 22:43:00,65.9,62.4,29.65,NNW,344,7.4,7.4,90,0.00,,,0.00,WX3IN1Plus v1.30,2013-06-08 02:43:00,
2013-06-07 22:49:00,65.7,62.0,29.65,North,358,3.2,9.0,89,0.00,,,0.00,WX3IN1Plus v1.30,2013-06-08 02:49:00,
2013-06-07 22:54:00,65.9,62.0,29.58,NNE,18,0.7,5.2,89,0.00,,,0.00,WX3IN1Plus v1.30,2013-06-08 02:54:00,
2013-06-07 23:00:00,65.7,62.0,29.66,North,358,3.7,9.5,89,0.00,,,0.00,WX3IN1Plus v1.30,2013-06-08 03:00:00,
2013-06-07 23:05:00,65.4,61.5,29.55,NE,43,3.3,8.3,89,0.00,,,0.00,WX3IN1Plus v1.30,2013-06-08 03:05:00,
2013-06-07 23:10:00,65.7,62.0,29.66,ENE,66,2.2,6.8,89,0.00,,,0.00,WX3IN1Plus v1.30,2013-06-08 03:10:00,
2013-06-07 23:15:00,65.5,61.8,29.66,NNE,15,1.5,5.2,89,0.00,,,0.00,WX3IN1Plus v1.30,2013-06-08 03:15:00,
2013-06-07 23:21:00,65.7,62.0,29.66,NW,326,5.0,10.0,89,0.00,,,0.00,WX3IN1Plus v1.30,2013-06-08 03:21:00,
2013-06-07 23:26:00,65.6,62.0,29.66,NE,56,1.9,10.0,90,0.00,,,0.00,WX3IN1Plus v1.30,2013-06-08 03:26:00,
2013-06-07 23:33:00,65.2,61.8,29.67,NW,305,4.1,8.2,90,0.00,,,0.00,WX3IN1Plus v1.30,2013-06-08 03:33:00,
2013-06-07 23:38:00,65.6,62.0,29.67,NE,47,4.5,9.9,90,0.00,,,0.00,WX3IN1Plus v1.30,2013-06-08 03:38:00,
2013-06-07 23:43:00,65.5,62.0,29.68,NW,317,0.8,8.4,90,0.00,,,0.00,WX3IN1Plus v1.30,2013-06-08 03:43:00,
2013-06-07 23:48:00,65.5,62.0,29.68,NNE,22,5.7,7.6,90,0.00,,,0.00,WX3IN1Plus v1.30,2013-06-08 03:48:00,
2013-06-07 23:53:00,65.3,61.8,29.68,NE,46,4.0,8.2,90,0.00,,,0.00,WX3IN1Plus v1.30,2013-06-08 03:53:00,
2013-06-07 23:59:00,65.6,62.0,29.69,North,11,1.2,8.2,90,0.00,,,0.00,WX3IN1Plus v1.30,2013-06-08 03:59:00,